Main page
METAR-TAF:

METAR-TAF

Airports :

Presidente Prudente Airport

Presidente Prudente, São Paulo, Brazil

latitude: 22-07S, longitude: 051-23W, elevation: 436 m

Current weather observation

The report was made 43 minutes ago, at 07:00 UTC
Wind 6 kt from the East/Southeast
Temperature 19°C
Humidity 64%
Pressure 1013 hPa
Visibility 10 km or more
no clouds below 1500 m and no cumulonimbus

METAR: SBDN 190700Z 12006KT CAVOK 19/12 Q1013

Time: 04:43 (07:43 UTC)

Forecast

The report was made 6 hours and 13 minutes ago, at 01:30 UTC
Forecast valid from 19 at 06 UTC to 19 at 18 UTC
Wind kt from the North
Visibility 10 km or more
no clouds below 1500 m and no cumulonimbus

TAF: SBDN 190130Z 1906/1918 00000KT CAVOK TN18/1909Z TX32/1917Z RMK PEB

Weather observations and forecasts of more than 4000 airports (METAR and TAF reports).

The available stations are represented by yellow and red dots on the map.

Hover mouse over dot to see the name of the station.

Then click to see weather observations and forecasts.

To change the map : click on the green buttons with a black cross to zoom in, on the green button with a dash to zoom out, or on the green arrows for adjacent maps.


METAR-TAF: